createdAt,value
2023-03-31T00:02:15.436Z,10.62
2023-03-31T00:04:46.729Z,10.68
2023-03-31T00:07:16.205Z,10.67
2023-03-31T00:09:46.616Z,10.59
2023-03-31T00:12:14.722Z,10.54
2023-03-31T00:14:42.897Z,10.54
2023-03-31T00:17:10.698Z,10.54
2023-03-31T00:19:40.224Z,10.53
2023-03-31T00:22:07.249Z,10.53
2023-03-31T00:24:34.431Z,10.53
2023-03-31T00:27:03.039Z,10.55
2023-03-31T00:29:31.407Z,10.59
2023-03-31T00:31:59.793Z,10.60
2023-03-31T00:34:27.619Z,10.56
2023-03-31T00:36:57.925Z,10.50
2023-03-31T00:39:24.815Z,10.48
2023-03-31T00:41:51.842Z,10.41
2023-03-31T00:44:27.709Z,10.50
2023-03-31T00:47:12.916Z,10.53
2023-03-31T00:49:48.709Z,10.44
2023-03-31T00:52:22.546Z,10.43
2023-03-31T00:54:57.929Z,10.41
2023-03-31T00:57:28.655Z,10.40
2023-03-31T01:00:12.702Z,10.45
2023-03-31T01:02:41.688Z,10.40
2023-03-31T01:05:09.319Z,10.45
2023-03-31T01:07:43.383Z,10.38
2023-03-31T01:10:11.187Z,10.35
2023-03-31T01:12:41.100Z,10.38
2023-03-31T01:15:09.647Z,10.38
2023-03-31T01:17:37.474Z,10.40
2023-03-31T01:20:36.517Z,10.52
2023-03-31T01:23:31.278Z,10.40
2023-03-31T01:26:10.227Z,10.38
2023-03-31T01:28:39.879Z,10.40
2023-03-31T01:31:21.899Z,10.40
2023-03-31T01:34:01.044Z,10.37
2023-03-31T01:36:49.861Z,10.37
2023-03-31T01:39:40.998Z,10.42
2023-03-31T01:42:23.151Z,10.40
2023-03-31T01:45:01.345Z,10.39
2023-03-31T01:47:40.291Z,10.39
2023-03-31T01:50:24.866Z,10.46
2023-03-31T01:53:05.861Z,10.45
2023-03-31T01:55:54.993Z,10.49
2023-03-31T01:58:26.308Z,10.53
2023-03-31T02:01:03.734Z,10.45
2023-03-31T02:03:48.359Z,10.44
2023-03-31T02:06:20.536Z,10.46
2023-03-31T02:08:53.783Z,10.45
2023-03-31T02:11:21.869Z,10.44
2023-03-31T02:13:52.510Z,10.46
2023-03-31T02:16:26.645Z,10.43
2023-03-31T02:19:02.419Z,10.46
2023-03-31T02:21:36.886Z,10.41
2023-03-31T02:24:08.044Z,10.43
2023-03-31T02:26:41.512Z,10.45
2023-03-31T02:29:08.617Z,10.45
2023-03-31T02:31:44.859Z,10.42
2023-03-31T02:34:11.693Z,10.41
2023-03-31T02:36:38.647Z,10.41
2023-03-31T02:39:09.839Z,10.44
2023-03-31T02:41:37.418Z,10.46
2023-03-31T02:44:04.425Z,10.51
2023-03-31T02:46:32.085Z,10.53
2023-03-31T02:49:02.542Z,10.49
2023-03-31T02:52:11.537Z,10.42
2023-03-31T02:55:30.632Z,10.39
2023-03-31T02:58:31.695Z,10.41
2023-03-31T03:01:12.231Z,10.36
2023-03-31T03:03:51.214Z,10.36
2023-03-31T03:06:37.644Z,10.43
2023-03-31T03:09:35.173Z,10.37
2023-03-31T03:12:14.120Z,10.31
2023-03-31T03:14:51.521Z,10.27
2023-03-31T03:17:36.204Z,10.30
2023-03-31T03:20:09.499Z,10.33
2023-03-31T03:22:37.699Z,10.31
2023-03-31T03:25:06.207Z,10.33
2023-03-31T03:27:32.974Z,10.29
2023-03-31T03:29:59.829Z,10.25
2023-03-31T03:32:26.588Z,10.28
2023-03-31T03:34:53.346Z,10.29
2023-03-31T03:37:20.342Z,10.26
2023-03-31T03:39:47.306Z,10.24
2023-03-31T03:42:14.381Z,10.23
2023-03-31T03:44:41.165Z,10.25
2023-03-31T03:47:07.974Z,10.28
2023-03-31T03:49:34.806Z,10.25
2023-03-31T03:52:01.618Z,10.19
2023-03-31T03:54:28.368Z,10.19
2023-03-31T03:56:55.671Z,10.12
2023-03-31T03:59:22.609Z,10.14
2023-03-31T04:01:49.528Z,10.10
2023-03-31T04:04:16.519Z,10.12
2023-03-31T04:06:43.370Z,10.20
2023-03-31T04:09:10.664Z,10.21
2023-03-31T04:11:37.368Z,10.20
2023-03-31T04:14:04.237Z,10.24
2023-03-31T04:16:32.335Z,10.19
2023-03-31T04:18:59.745Z,10.15
2023-03-31T04:21:26.509Z,10.16
2023-03-31T04:24:04.747Z,10.25
2023-03-31T04:26:43.724Z,10.25
2023-03-31T04:29:16.275Z,10.22
2023-03-31T04:31:44.046Z,10.21
2023-03-31T04:34:13.761Z,10.22
2023-03-31T04:36:42.826Z,10.25
2023-03-31T04:39:12.962Z,10.28
2023-03-31T04:41:39.734Z,10.23
2023-03-31T04:44:06.718Z,10.28
2023-03-31T04:46:35.273Z,10.33
2023-03-31T04:49:02.877Z,10.29
2023-03-31T04:51:29.704Z,10.27
2023-03-31T04:53:56.692Z,10.25
2023-03-31T04:56:23.507Z,10.25
2023-03-31T04:58:50.282Z,10.25
2023-03-31T05:01:20.936Z,10.30
2023-03-31T05:03:48.295Z,10.35
2023-03-31T05:06:16.564Z,10.31
2023-03-31T05:08:44.347Z,10.35
2023-03-31T05:11:11.306Z,10.40
2023-03-31T05:13:38.249Z,10.39
2023-03-31T05:16:14.478Z,10.38
2023-03-31T05:18:41.968Z,10.38
2023-03-31T05:21:14.407Z,10.38
2023-03-31T05:23:42.055Z,10.40
2023-03-31T05:26:09.557Z,10.34
2023-03-31T05:28:36.440Z,10.37
2023-03-31T05:31:04.485Z,10.30
2023-03-31T05:33:31.712Z,10.28
2023-03-31T05:36:00.259Z,10.31
2023-03-31T05:38:31.624Z,10.34
2023-03-31T05:40:58.620Z,10.40
2023-03-31T05:43:25.724Z,10.40
2023-03-31T05:45:52.732Z,10.37
2023-03-31T05:48:19.757Z,10.42
2023-03-31T05:50:46.610Z,10.44
2023-03-31T05:53:13.404Z,10.45
2023-03-31T05:55:40.323Z,10.44
2023-03-31T05:58:09.046Z,10.44
2023-03-31T06:00:37.957Z,10.46
2023-03-31T06:03:07.881Z,10.50
2023-03-31T06:05:35.675Z,10.45
2023-03-31T06:08:02.605Z,10.45
2023-03-31T06:10:29.737Z,10.55
2023-03-31T06:12:56.604Z,10.64
2023-03-31T06:15:23.520Z,10.80
2023-03-31T06:17:50.312Z,10.89
2023-03-31T06:20:27.838Z,10.88
2023-03-31T06:22:55.502Z,10.81
2023-03-31T06:25:22.248Z,10.87
2023-03-31T06:27:49.004Z,10.93
2023-03-31T06:30:15.919Z,10.94
2023-03-31T06:32:42.643Z,11.03
2023-03-31T06:35:09.781Z,11.01
2023-03-31T06:37:36.594Z,10.94
2023-03-31T06:40:04.544Z,11.01
2023-03-31T06:42:31.838Z,10.95
2023-03-31T06:44:58.754Z,10.99
2023-03-31T06:47:25.569Z,11.02
2023-03-31T06:49:52.332Z,11.05
2023-03-31T06:52:19.247Z,10.96
2023-03-31T06:54:46.065Z,11.03
2023-03-31T06:57:13.202Z,11.02
2023-03-31T06:59:40.011Z,11.28
2023-03-31T07:02:07.594Z,11.34
2023-03-31T07:04:34.824Z,11.58
2023-03-31T07:07:01.978Z,11.66
2023-03-31T07:09:28.784Z,11.71
2023-03-31T07:11:56.604Z,11.64
2023-03-31T07:14:23.915Z,11.72
2023-03-31T07:16:50.959Z,11.66
2023-03-31T07:19:17.982Z,11.86
2023-03-31T07:21:45.044Z,12.26
2023-03-31T07:24:11.930Z,11.96
2023-03-31T07:26:38.660Z,11.79
2023-03-31T07:29:06.187Z,11.78
2023-03-31T07:31:33.114Z,11.81
2023-03-31T07:34:01.650Z,11.87
2023-03-31T07:36:28.923Z,11.81
2023-03-31T07:38:55.686Z,11.98
2023-03-31T07:41:23.214Z,12.22
2023-03-31T07:43:51.025Z,12.31
2023-03-31T07:46:19.274Z,12.01
2023-03-31T07:48:47.071Z,12.08
2023-03-31T07:51:19.535Z,11.88
2023-03-31T07:53:47.010Z,12.02
2023-03-31T07:56:13.861Z,12.00
2023-03-31T07:58:40.650Z,11.92
2023-03-31T08:01:08.271Z,11.87
2023-03-31T08:03:35.317Z,11.94
2023-03-31T08:06:02.256Z,12.03
2023-03-31T08:08:29.230Z,11.82
2023-03-31T08:10:55.933Z,11.83
2023-03-31T08:13:22.714Z,11.77
2023-03-31T08:15:49.589Z,11.86
2023-03-31T08:18:16.708Z,11.86
2023-03-31T08:20:43.481Z,11.91
2023-03-31T08:23:12.163Z,11.74
2023-03-31T08:25:38.936Z,11.88
2023-03-31T08:28:06.848Z,11.91
2023-03-31T08:30:33.840Z,11.88
2023-03-31T08:33:00.792Z,11.88
2023-03-31T08:35:27.649Z,11.90
2023-03-31T08:37:54.446Z,12.05
2023-03-31T08:40:25.345Z,12.15
2023-03-31T08:42:56.317Z,12.08
2023-03-31T08:45:34.321Z,12.18
2023-03-31T08:48:08.171Z,12.46
2023-03-31T08:50:39.488Z,12.53
2023-03-31T08:53:12.826Z,12.76
2023-03-31T08:55:51.665Z,12.75
2023-03-31T08:58:42.178Z,12.78
2023-03-31T09:01:17.024Z,12.74
2023-03-31T09:03:56.180Z,12.93
2023-03-31T09:06:32.598Z,12.96
2023-03-31T09:09:02.503Z,12.95
2023-03-31T09:11:40.051Z,12.90
2023-03-31T09:14:34.629Z,13.16
2023-03-31T09:17:24.545Z,13.85
2023-03-31T09:20:00.254Z,14.19
2023-03-31T09:22:32.405Z,14.41
2023-03-31T09:25:07.865Z,14.57
2023-03-31T09:27:37.465Z,14.18
2023-03-31T09:30:14.741Z,14.80
2023-03-31T09:32:41.786Z,15.00
2023-03-31T09:35:21.641Z,15.08
2023-03-31T09:37:49.649Z,14.71
2023-03-31T09:40:22.323Z,14.85
2023-03-31T09:42:57.164Z,15.06
2023-03-31T09:45:24.089Z,14.54
2023-03-31T09:47:54.955Z,14.47
2023-03-31T09:50:25.400Z,14.53
2023-03-31T09:52:56.535Z,14.51
2023-03-31T09:55:39.632Z,15.03
2023-03-31T09:58:11.922Z,14.99
2023-03-31T10:00:42.322Z,15.15
2023-03-31T10:03:13.349Z,14.78
2023-03-31T10:05:52.295Z,15.00
2023-03-31T10:08:28.147Z,14.95
2023-03-31T10:11:07.251Z,14.78
2023-03-31T10:13:58.818Z,14.91
2023-03-31T10:16:43.133Z,14.34
2023-03-31T10:19:31.755Z,14.13
2023-03-31T10:22:26.456Z,13.79
2023-03-31T10:24:53.864Z,13.83
2023-03-31T10:27:27.943Z,13.63
2023-03-31T10:30:03.025Z,13.86
2023-03-31T10:32:34.757Z,13.94
2023-03-31T10:35:08.794Z,13.66
2023-03-31T10:37:36.565Z,13.80
2023-03-31T10:40:23.526Z,13.75
2023-03-31T10:43:01.448Z,13.93
2023-03-31T10:45:37.816Z,13.81
2023-03-31T10:48:16.629Z,13.81
2023-03-31T10:50:43.691Z,14.03
2023-03-31T10:53:15.828Z,14.38
2023-03-31T10:56:08.045Z,14.75
2023-03-31T10:59:05.858Z,14.70
2023-03-31T11:01:45.534Z,14.85
2023-03-31T11:05:05.761Z,14.93
2023-03-31T11:08:09.786Z,14.33
2023-03-31T11:11:12.150Z,14.62
2023-03-31T11:13:56.368Z,14.70
2023-03-31T11:16:48.330Z,14.67
2023-03-31T11:19:28.662Z,14.29
2023-03-31T11:22:01.493Z,14.14
2023-03-31T11:24:44.819Z,14.72
2023-03-31T11:27:24.318Z,14.78
2023-03-31T11:30:12.419Z,14.71
2023-03-31T11:33:06.572Z,14.78
2023-03-31T11:35:59.613Z,14.51
2023-03-31T11:38:44.683Z,14.43
2023-03-31T11:41:17.526Z,14.48
2023-03-31T11:43:49.718Z,14.57
2023-03-31T11:46:19.064Z,14.36
2023-03-31T11:48:59.813Z,14.59
2023-03-31T11:51:38.833Z,14.11
2023-03-31T11:54:12.139Z,14.21
2023-03-31T11:56:41.394Z,14.13
2023-03-31T11:59:14.371Z,14.10
2023-03-31T12:02:07.416Z,14.25
2023-03-31T12:04:41.278Z,14.05
2023-03-31T12:07:26.699Z,14.08
2023-03-31T12:10:19.876Z,13.96
2023-03-31T12:13:01.829Z,14.14
2023-03-31T12:15:33.617Z,13.91
2023-03-31T12:18:08.657Z,14.09
2023-03-31T12:20:42.779Z,14.38
2023-03-31T12:23:17.406Z,13.99
2023-03-31T12:26:22.919Z,14.10
2023-03-31T12:28:58.462Z,13.85
2023-03-31T12:31:28.352Z,13.99
2023-03-31T12:34:00.744Z,13.81
2023-03-31T12:36:56.710Z,13.37
2023-03-31T12:40:01.250Z,13.23
2023-03-31T12:43:02.011Z,13.16
2023-03-31T12:45:31.392Z,13.02
2023-03-31T12:48:26.258Z,12.86
2023-03-31T12:51:10.144Z,12.75
2023-03-31T12:54:14.357Z,12.73
2023-03-31T12:57:13.241Z,12.72
2023-03-31T12:59:44.740Z,12.92
2023-03-31T13:02:21.638Z,12.85
2023-03-31T13:04:50.156Z,12.97
2023-03-31T13:07:29.256Z,13.12
2023-03-31T13:10:18.886Z,13.05
2023-03-31T13:13:02.693Z,13.21
2023-03-31T13:15:30.740Z,13.43
2023-03-31T13:18:06.368Z,13.47
2023-03-31T13:20:37.546Z,13.64
2023-03-31T13:23:19.586Z,13.59
2023-03-31T13:25:49.231Z,13.69
2023-03-31T13:28:48.482Z,13.75
2023-03-31T13:31:15.861Z,13.73
2023-03-31T13:34:01.073Z,13.66
2023-03-31T13:36:34.067Z,13.70
2023-03-31T13:39:49.094Z,13.82
2023-03-31T13:42:37.521Z,14.07
2023-03-31T13:45:47.004Z,14.00
2023-03-31T13:48:34.845Z,14.25
2023-03-31T13:51:31.568Z,14.44
2023-03-31T13:54:16.962Z,14.97
2023-03-31T13:56:58.784Z,14.99
2023-03-31T13:59:37.997Z,15.19
2023-03-31T14:02:23.694Z,14.71
2023-03-31T14:04:56.984Z,14.47
2023-03-31T14:07:40.863Z,14.47
2023-03-31T14:10:27.479Z,14.89
2023-03-31T14:13:08.721Z,14.81
2023-03-31T14:15:38.834Z,14.63
2023-03-31T14:18:07.487Z,14.69
2023-03-31T14:20:48.804Z,14.84
2023-03-31T14:23:31.920Z,14.92
2023-03-31T14:26:10.388Z,14.67
2023-03-31T14:29:11.211Z,14.29
2023-03-31T14:31:58.422Z,14.37
2023-03-31T14:34:43.125Z,14.50
2023-03-31T14:37:13.749Z,14.20
2023-03-31T14:39:44.482Z,14.17
2023-03-31T14:42:19.775Z,14.17
2023-03-31T14:44:48.571Z,14.26
2023-03-31T14:47:21.307Z,13.93
2023-03-31T14:49:58.921Z,13.86
2023-03-31T14:52:30.855Z,13.94
2023-03-31T14:54:59.723Z,13.75
2023-03-31T14:57:37.022Z,13.67
2023-03-31T15:00:08.383Z,13.74
2023-03-31T15:02:37.800Z,13.68
2023-03-31T15:05:07.650Z,13.66
2023-03-31T15:07:35.299Z,13.66
2023-03-31T15:10:04.979Z,13.74
2023-03-31T15:12:32.229Z,13.74
2023-03-31T15:15:04.380Z,13.82
2023-03-31T15:17:36.711Z,14.00
2023-03-31T15:20:36.512Z,13.94
2023-03-31T15:23:18.781Z,13.84
2023-03-31T15:25:45.949Z,13.95
2023-03-31T15:28:16.723Z,13.81
2023-03-31T15:30:46.639Z,13.81
2023-03-31T15:33:22.488Z,13.70
2023-03-31T15:35:49.552Z,13.89
2023-03-31T15:38:20.348Z,13.78
2023-03-31T15:40:55.972Z,13.89
2023-03-31T15:43:48.355Z,13.69
2023-03-31T15:46:39.895Z,13.76
2023-03-31T15:49:20.866Z,13.64
2023-03-31T15:51:48.456Z,13.75
2023-03-31T15:54:41.003Z,13.58
2023-03-31T15:57:09.440Z,13.71
2023-03-31T16:02:24.866Z,13.62
2023-03-31T16:04:56.982Z,13.38
2023-03-31T16:07:27.194Z,13.40
2023-03-31T16:09:56.933Z,13.50
2023-03-31T16:12:46.725Z,13.43
2023-03-31T16:15:28.321Z,13.39
2023-03-31T16:18:02.253Z,13.35
2023-03-31T16:20:37.046Z,13.30
2023-03-31T16:23:17.273Z,13.27
2023-03-31T16:25:44.887Z,13.29
2023-03-31T16:28:18.852Z,13.35
2023-03-31T16:30:46.375Z,13.31
2023-03-31T16:33:19.059Z,13.34
2023-03-31T16:35:56.146Z,13.27
2023-03-31T16:38:28.368Z,13.32
2023-03-31T16:40:57.399Z,13.33
2023-03-31T16:43:30.609Z,13.31
2023-03-31T16:46:03.478Z,13.52
2023-03-31T16:48:34.920Z,13.48
2023-03-31T16:51:02.059Z,13.30
2023-03-31T16:53:31.645Z,13.14
2023-03-31T16:55:58.451Z,13.07
2023-03-31T16:58:26.314Z,13.10
2023-03-31T17:00:53.968Z,13.20
2023-03-31T17:03:21.345Z,13.08
2023-03-31T17:05:52.792Z,13.09
2023-03-31T17:08:21.655Z,13.25
2023-03-31T17:11:11.014Z,13.12
2023-03-31T17:13:39.492Z,13.08
2023-03-31T17:16:17.524Z,13.08
2023-03-31T17:18:49.068Z,13.05
2023-03-31T17:21:19.862Z,12.95
2023-03-31T17:23:46.847Z,12.97
2023-03-31T17:26:14.413Z,12.97
2023-03-31T17:28:41.642Z,12.96
2023-03-31T17:31:27.290Z,12.87
2023-03-31T17:33:54.096Z,12.82
2023-03-31T17:36:22.257Z,12.91
2023-03-31T17:38:49.383Z,12.80
2023-03-31T17:41:17.767Z,12.79
2023-03-31T17:43:46.935Z,12.85
2023-03-31T17:46:14.116Z,12.77
2023-03-31T17:48:41.960Z,12.72
2023-03-31T17:51:13.615Z,12.71
2023-03-31T17:53:42.487Z,12.61
2023-03-31T17:56:09.882Z,12.55
2023-03-31T17:58:36.793Z,12.41
2023-03-31T18:01:05.924Z,12.43
2023-03-31T18:03:33.218Z,12.30
2023-03-31T18:06:09.030Z,12.15
2023-03-31T18:08:36.100Z,12.17
2023-03-31T18:11:05.037Z,12.02
2023-03-31T18:13:33.372Z,12.17
2023-03-31T18:16:00.488Z,12.08
2023-03-31T18:18:29.126Z,12.06
2023-03-31T18:20:56.283Z,11.99
2023-03-31T18:23:23.650Z,12.00
2023-03-31T18:25:50.450Z,11.98
2023-03-31T18:28:19.062Z,11.89
2023-03-31T18:30:47.502Z,11.96
2023-03-31T18:33:14.962Z,11.89
2023-03-31T18:35:42.223Z,11.78
2023-03-31T18:38:09.862Z,11.75
2023-03-31T18:40:37.726Z,11.77
2023-03-31T18:43:05.857Z,11.74
2023-03-31T18:45:32.998Z,11.86
2023-03-31T18:48:00.045Z,11.76
2023-03-31T18:50:26.988Z,11.75
2023-03-31T18:52:54.690Z,11.89
2023-03-31T18:55:23.226Z,11.70
2023-03-31T18:57:50.355Z,11.72
2023-03-31T19:00:18.963Z,11.74
2023-03-31T19:02:46.062Z,11.67
2023-03-31T19:05:12.961Z,11.69
2023-03-31T19:07:40.828Z,11.62
2023-03-31T19:10:08.637Z,11.69
2023-03-31T19:12:35.418Z,11.62
2023-03-31T19:15:02.409Z,11.58
2023-03-31T19:17:29.472Z,11.56
2023-03-31T19:19:56.656Z,11.55
2023-03-31T19:22:25.427Z,11.54
2023-03-31T19:24:52.434Z,11.56
2023-03-31T19:27:19.196Z,11.57
2023-03-31T19:29:46.146Z,11.51
2023-03-31T19:32:13.019Z,11.44
2023-03-31T19:34:39.951Z,11.39
2023-03-31T19:37:06.942Z,11.44
2023-03-31T19:39:33.785Z,11.32
2023-03-31T19:42:01.596Z,11.41
2023-03-31T19:44:29.468Z,11.41
2023-03-31T19:46:58.724Z,11.44
2023-03-31T19:49:25.859Z,11.31
2023-03-31T19:51:52.965Z,11.31
2023-03-31T19:54:19.847Z,11.25
2023-03-31T19:56:47.528Z,11.23
2023-03-31T19:59:14.453Z,11.17
2023-03-31T20:01:41.461Z,11.24
2023-03-31T20:04:08.749Z,11.28
2023-03-31T20:06:35.724Z,11.17
2023-03-31T20:09:06.182Z,11.04
2023-03-31T20:11:33.325Z,11.04
2023-03-31T20:14:00.644Z,11.04
2023-03-31T20:16:29.825Z,11.04
2023-03-31T20:18:58.470Z,11.01
2023-03-31T20:21:27.593Z,10.97
2023-03-31T20:23:54.915Z,11.04
2023-03-31T20:26:25.092Z,11.05
2023-03-31T20:28:53.237Z,11.00
2023-03-31T20:31:23.606Z,11.05
2023-03-31T20:33:52.784Z,10.98
2023-03-31T20:36:32.206Z,11.02
2023-03-31T20:39:00.295Z,11.03
2023-03-31T20:41:29.797Z,11.00
2023-03-31T20:43:57.878Z,10.98
2023-03-31T20:46:25.138Z,10.95
2023-03-31T20:48:55.907Z,10.89
2023-03-31T20:51:28.979Z,10.80
2023-03-31T20:53:57.631Z,10.73
2023-03-31T20:56:30.763Z,10.68
2023-03-31T20:58:59.098Z,10.65
2023-03-31T21:01:32.601Z,10.64
2023-03-31T21:04:01.351Z,10.56
2023-03-31T21:06:40.536Z,10.54
2023-03-31T21:09:08.098Z,10.52
2023-03-31T21:11:34.787Z,10.44
2023-03-31T21:14:02.402Z,10.48
2023-03-31T21:16:29.188Z,10.36
2023-03-31T21:18:57.037Z,10.34
2023-03-31T21:21:25.017Z,10.36
2023-03-31T21:23:52.143Z,10.26
2023-03-31T21:26:19.677Z,10.27
2023-03-31T21:28:46.739Z,10.24
2023-03-31T21:31:17.154Z,10.26
2023-03-31T21:33:46.679Z,10.21
2023-03-31T21:36:18.760Z,10.18
2023-03-31T21:38:45.707Z,10.22
2023-03-31T21:41:15.920Z,10.10
2023-03-31T21:43:43.766Z,10.04
2023-03-31T21:46:16.480Z,9.90
2023-03-31T21:48:43.663Z,9.98
2023-03-31T21:51:11.813Z,9.82
2023-03-31T21:53:38.607Z,9.66
2023-03-31T21:56:05.526Z,9.62
2023-03-31T21:58:32.892Z,9.59
2023-03-31T22:01:04.095Z,9.61
2023-03-31T22:03:34.391Z,9.61
2023-03-31T22:06:04.361Z,9.49
2023-03-31T22:08:31.713Z,9.27
2023-03-31T22:11:00.481Z,9.19
2023-03-31T22:13:28.444Z,9.12
2023-03-31T22:15:56.352Z,9.08
2023-03-31T22:18:23.717Z,9.03
2023-03-31T22:20:50.816Z,9.07
2023-03-31T22:23:20.526Z,9.10
2023-03-31T22:25:47.874Z,9.03
2023-03-31T22:28:16.646Z,9.00
2023-03-31T22:30:44.014Z,8.65
2023-03-31T22:33:10.859Z,8.56
2023-03-31T22:35:37.741Z,8.48
2023-03-31T22:38:06.202Z,8.43
2023-03-31T22:40:34.656Z,8.27
2023-03-31T22:43:01.638Z,8.34
2023-03-31T22:45:28.543Z,8.36
2023-03-31T22:47:55.476Z,8.22
2023-03-31T22:50:23.449Z,8.32
2023-03-31T22:52:50.339Z,8.34
2023-03-31T22:55:17.236Z,8.07
2023-03-31T22:57:44.562Z,8.07
2023-03-31T23:00:12.997Z,7.88
2023-03-31T23:02:40.725Z,7.86
2023-03-31T23:05:08.072Z,7.91
2023-03-31T23:07:35.065Z,8.02
2023-03-31T23:10:02.085Z,7.69
2023-03-31T23:12:29.128Z,7.65
2023-03-31T23:14:56.084Z,7.69
2023-03-31T23:17:22.943Z,7.70
2023-03-31T23:19:49.852Z,7.82
2023-03-31T23:22:16.749Z,7.58
2023-03-31T23:24:43.564Z,7.39
2023-03-31T23:27:10.732Z,7.28
2023-03-31T23:29:37.617Z,7.20
2023-03-31T23:32:04.877Z,7.23
2023-03-31T23:34:31.719Z,7.26
2023-03-31T23:36:58.503Z,7.23
2023-03-31T23:39:25.680Z,7.23
2023-03-31T23:41:53.443Z,7.09
2023-03-31T23:44:20.350Z,7.09
2023-03-31T23:46:47.213Z,7.07
2023-03-31T23:49:14.291Z,7.09
2023-03-31T23:51:41.437Z,7.09
2023-03-31T23:54:08.315Z,7.04
2023-03-31T23:56:35.284Z,7.00
2023-03-31T23:59:02.192Z,6.95
